Time;durP1;ratioP1;P1;durP2;ratioP2;P2;SDS_P1;SDS_P2;PMS_P1;PMS_P2;Temp;Humidity;BMP_temperature;BMP_pressure;BME280_temperature;BME280_humidity;BME280_pressure;Samples;Min_cycle;Max_cycle;Signal;HPM_P1;HPM_P2
2022/12/04 00:01:09;;;;;;;9.45;5.38;;;;;;;;;;5083299;28;20111;-79
2022/12/04 00:03:35;;;;;;;6.78;5.07;;;;;;;;;;5068071;28;20123;-78
2022/12/04 00:06:02;;;;;;;11.75;6.45;;;;;;;;;;5066423;28;20044;-79
2022/12/04 00:08:28;;;;;;;9.35;7.10;;;;;;;;;;5095165;28;20408;-78
2022/12/04 00:10:54;;;;;;;15.07;8.88;;;;;;;;;;5070681;28;20030;-79
2022/12/04 00:13:20;;;;;;;10.70;8.05;;;;;;;;;;5068731;28;20044;-78
2022/12/04 00:15:46;;;;;;;11.73;8.23;;;;;;;;;;5064819;28;20037;-78
2022/12/04 00:18:12;;;;;;;11.23;8.40;;;;;;;;;;5034135;28;20050;-78
2022/12/04 00:20:39;;;;;;;17.05;8.40;;;;;;;;;;5031570;28;20082;-79
2022/12/04 00:23:06;;;;;;;14.55;7.72;;;;;;;;;;5066651;28;20431;-78
2022/12/04 00:25:32;;;;;;;12.60;8.15;;;;;;;;;;5035787;28;20021;-78
2022/12/04 00:27:58;;;;;;;10.80;8.15;;;;;;;;;;5035379;28;20107;-78
2022/12/04 00:30:24;;;;;;;11.57;9.15;;;;;;;;;;5073985;28;20022;-78
2022/12/04 00:32:50;;;;;;;16.08;7.75;;;;;;;;;;5041773;28;20426;-78
2022/12/04 00:35:16;;;;;;;11.40;6.60;;;;;;;;;;5075183;28;20022;-77
2022/12/04 00:37:42;;;;;;;9.90;5.90;;;;;;;;;;5069077;28;20025;-78
2022/12/04 00:40:08;;;;;;;7.78;4.70;;;;;;;;;;5034323;28;20140;-79
2022/12/04 00:42:35;;;;;;;5.43;4.38;;;;;;;;;;5045649;28;20045;-78
2022/12/04 00:45:01;;;;;;;7.05;4.05;;;;;;;;;;5038507;28;20083;-78
2022/12/04 00:47:27;;;;;;;6.18;3.88;;;;;;;;;;5028265;28;20104;-78
2022/12/04 00:49:53;;;;;;;9.38;4.88;;;;;;;;;;5061947;28;20022;-78
2022/12/04 00:52:19;;;;;;;6.75;5.00;;;;;;;;;;5027182;28;20058;-78
2022/12/04 00:54:45;;;;;;;10.23;5.80;;;;;;;;;;5026443;28;20037;-78
2022/12/04 00:57:11;;;;;;;8.55;6.72;;;;;;;;;;5029667;28;20120;-78
2022/12/04 00:59:37;;;;;;;9.75;5.03;;;;;;;;;;5029530;28;20107;-78
2022/12/04 01:02:03;;;;;;;6.68;5.75;;;;;;;;;;5027382;28;20056;-78
2022/12/04 01:04:29;;;;;;;5.00;4.30;;;;;;;;;;5026186;28;20030;-78
2022/12/04 01:06:56;;;;;;;8.98;4.35;;;;;;;;;;5031148;28;20037;-79
2022/12/04 01:09:22;;;;;;;5.90;4.72;;;;;;;;;;5033579;28;20032;-79
2022/12/04 01:11:48;;;;;;;7.07;4.38;;;;;;;;;;5040107;28;20028;-78
2022/12/04 01:14:14;;;;;;;7.93;4.45;;;;;;;;;;5040158;28;20025;-79
2022/12/04 01:16:40;;;;;;;6.30;4.15;;;;;;;;;;5045718;28;20029;-79
2022/12/04 01:19:07;;;;;;;8.93;5.75;;;;;;;;;;5081843;28;20068;-79
2022/12/04 01:21:34;;;;;;;6.97;5.97;;;;;;;;;;5061966;28;20649;-78
2022/12/04 01:24:00;;;;;;;5.70;4.63;;;;;;;;;;5078381;28;20024;-78
2022/12/04 01:26:26;;;;;;;5.38;4.82;;;;;;;;;;5069270;28;20029;-78
2022/12/04 01:28:53;;;;;;;6.65;4.95;;;;;;;;;;5086401;28;20021;-78
2022/12/04 01:31:19;;;;;;;4.68;4.10;;;;;;;;;;5070762;28;20525;-78
2022/12/04 01:33:46;;;;;;;6.03;4.38;;;;;;;;;;5073336;28;20009;-78
2022/12/04 01:36:13;;;;;;;9.25;5.22;;;;;;;;;;5071373;28;20028;-78
2022/12/04 01:38:40;;;;;;;7.00;3.58;;;;;;;;;;5077001;28;20017;-77
2022/12/04 01:41:06;;;;;;;5.15;3.38;;;;;;;;;;5075956;28;20150;-78
2022/12/04 01:43:34;;;;;;;6.05;3.25;;;;;;;;;;5074838;28;20021;-78
2022/12/04 01:46:00;;;;;;;7.07;3.63;;;;;;;;;;5059549;28;20504;-78
2022/12/04 01:48:30;;;;;;;6.57;3.35;;;;;;;;;;5082258;28;20035;-78
2022/12/04 01:51:22;;;;;;;3.85;2.88;;;;;;;;;;5088544;28;20596;-77
2022/12/04 01:53:51;;;;;;;4.18;2.67;;;;;;;;;;5072619;28;20648;-78
2022/12/04 01:56:17;;;;;;;4.35;3.78;;;;;;;;;;5069988;28;20029;-80
2022/12/04 01:58:47;;;;;;;4.82;2.88;;;;;;;;;;5074990;28;20028;-79
2022/12/04 02:01:13;;;;;;;3.38;2.28;;;;;;;;;;5073740;28;20020;-78
2022/12/04 02:03:39;;;;;;;3.10;2.42;;;;;;;;;;5076733;28;20099;-79
2022/12/04 02:06:06;;;;;;;5.32;3.05;;;;;;;;;;5070883;28;20017;-78
2022/12/04 02:08:32;;;;;;;4.03;2.92;;;;;;;;;;5077714;28;20046;-79
2022/12/04 02:11:06;;;;;;;5.25;2.78;;;;;;;;;;5081276;28;20009;-78
2022/12/04 02:13:51;;;;;;;4.10;3.00;;;;;;;;;;5080530;28;20028;-78
2022/12/04 02:16:21;;;;;;;5.07;2.97;;;;;;;;;;5045232;28;20537;-79
2022/12/04 02:18:53;;;;;;;8.77;3.30;;;;;;;;;;5063496;28;21878;-77
2022/12/04 02:21:19;;;;;;;3.88;2.70;;;;;;;;;;5071067;28;20028;-77
2022/12/04 02:23:48;;;;;;;5.60;3.33;;;;;;;;;;5070382;28;20548;-78
2022/12/04 02:26:23;;;;;;;5.47;3.63;;;;;;;;;;5070660;28;20032;-78
2022/12/04 02:29:10;;;;;;;4.80;2.88;;;;;;;;;;5065996;28;20070;-79
2022/12/04 02:31:45;;;;;;;7.45;3.25;;;;;;;;;;5070409;28;20037;-79
2022/12/04 02:34:14;;;;;;;5.22;3.05;;;;;;;;;;5075973;28;20089;-77
2022/12/04 02:36:43;;;;;;;3.78;2.85;;;;;;;;;;5072667;28;20513;-79
2022/12/04 02:39:17;;;;;;;5.20;3.03;;;;;;;;;;5072983;28;20029;-80
2022/12/04 02:41:49;;;;;;;5.10;2.72;;;;;;;;;;5075455;28;20020;-79
2022/12/04 02:44:21;;;;;;;5.07;2.92;;;;;;;;;;5079612;28;20082;-78
2022/12/04 02:46:50;;;;;;;6.75;3.13;;;;;;;;;;5068572;28;20021;-79
2022/12/04 02:49:23;;;;;;;7.18;3.05;;;;;;;;;;5075569;28;20017;-80
2022/12/04 02:51:49;;;;;;;4.10;2.88;;;;;;;;;;5077824;28;20021;-80
2022/12/04 02:54:33;;;;;;;6.57;3.05;;;;;;;;;;5075408;28;20024;-80
2022/12/04 02:57:01;;;;;;;6.28;3.05;;;;;;;;;;5090778;28;20028;-80
2022/12/04 02:59:35;;;;;;;7.90;3.15;;;;;;;;;;5058988;28;20068;-80
2022/12/04 03:02:05;;;;;;;4.25;3.20;;;;;;;;;;5061965;28;20024;-80
2022/12/04 03:04:32;;;;;;;7.82;3.55;;;;;;;;;;5058794;28;20032;-79
2022/12/04 03:07:09;;;;;;;7.40;4.07;;;;;;;;;;5074991;28;20115;-79
2022/12/04 03:09:37;;;;;;;6.38;4.07;;;;;;;;;;5078163;28;20021;-79
2022/12/04 03:12:08;;;;;;;5.13;3.63;;;;;;;;;;5082204;28;20016;-80
2022/12/04 03:14:37;;;;;;;5.95;3.42;;;;;;;;;;5075397;28;20040;-79
2022/12/04 03:17:06;;;;;;;4.88;3.05;;;;;;;;;;5078431;28;20068;-79
2022/12/04 03:19:38;;;;;;;5.88;2.92;;;;;;;;;;5075133;28;20021;-79
2022/12/04 03:22:07;;;;;;;10.20;3.58;;;;;;;;;;5063385;28;20024;-79
2022/12/04 03:24:35;;;;;;;7.82;2.97;;;;;;;;;;5084330;28;20103;-80
2022/12/04 03:27:08;;;;;;;4.50;2.80;;;;;;;;;;5061525;28;20390;-80
2022/12/04 03:29:37;;;;;;;7.38;2.92;;;;;;;;;;5079930;28;20141;-79
2022/12/04 03:32:10;;;;;;;3.35;3.03;;;;;;;;;;5075483;28;20048;-79
2022/12/04 03:34:53;;;;;;;4.97;3.70;;;;;;;;;;5061715;28;20135;-79
2022/12/04 03:37:24;;;;;;;5.90;2.85;;;;;;;;;;5083483;28;20027;-79
2022/12/04 03:39:56;;;;;;;8.35;3.45;;;;;;;;;;5070221;28;20032;-79
2022/12/04 03:42:27;;;;;;;4.43;3.30;;;;;;;;;;5074711;28;20046;-79
2022/12/04 03:44:57;;;;;;;4.97;3.10;;;;;;;;;;5056793;28;20028;-79
2022/12/04 03:47:40;;;;;;;6.28;2.90;;;;;;;;;;5071390;28;20031;-78
2022/12/04 03:50:15;;;;;;;5.40;3.40;;;;;;;;;;5068822;28;20475;-79
2022/12/04 03:52:48;;;;;;;5.32;2.97;;;;;;;;;;5074591;28;20387;-78
2022/12/04 03:55:17;;;;;;;3.70;2.80;;;;;;;;;;5074830;28;20032;-79
2022/12/04 03:57:44;;;;;;;7.28;2.70;;;;;;;;;;5082303;28;20154;-79
2022/12/04 04:00:12;;;;;;;3.42;2.72;;;;;;;;;;5074344;28;20043;-80
2022/12/04 04:02:44;;;;;;;4.38;2.60;;;;;;;;;;5079135;28;20036;-80
2022/12/04 04:05:11;;;;;;;4.28;2.83;;;;;;;;;;5074263;28;20036;-79
2022/12/04 04:07:45;;;;;;;5.35;2.72;;;;;;;;;;5073076;28;20074;-80
2022/12/04 04:10:16;;;;;;;3.53;2.70;;;;;;;;;;5076204;28;20025;-80
2022/12/04 04:12:45;;;;;;;5.18;3.45;;;;;;;;;;5059561;28;20029;-80
2022/12/04 04:26:17;;;;;;;3.33;2.58;;;;;;;;;;5068176;28;20074;-79
2022/12/04 04:28:43;;;;;;;4.72;2.60;;;;;;;;;;5055173;28;20028;-78
2022/12/04 04:31:28;;;;;;;4.00;2.70;;;;;;;;;;5079320;28;20032;-80
2022/12/04 04:33:54;;;;;;;6.88;2.92;;;;;;;;;;5082317;28;20051;-79
2022/12/04 04:36:30;;;;;;;3.70;2.90;;;;;;;;;;5080464;28;20032;-80
2022/12/04 04:38:59;;;;;;;4.80;2.45;;;;;;;;;;5083431;28;20100;-79
2022/12/04 04:41:33;;;;;;;3.63;2.30;;;;;;;;;;5080455;28;20075;-79
2022/12/04 04:44:07;;;;;;;3.17;2.40;;;;;;;;;;5091775;28;20290;-79
2022/12/04 04:46:34;;;;;;;3.70;2.13;;;;;;;;;;5087836;28;20029;-79
2022/12/04 04:49:03;;;;;;;3.25;2.28;;;;;;;;;;5080675;28;20464;-77
2022/12/04 04:51:29;;;;;;;5.72;2.28;;;;;;;;;;5084151;28;20076;-78
2022/12/04 04:53:57;;;;;;;3.22;2.60;;;;;;;;;;5088220;28;20028;-78
2022/12/04 04:56:24;;;;;;;4.43;3.05;;;;;;;;;;5061212;28;20023;-79
2022/12/04 04:58:50;;;;;;;3.38;2.53;;;;;;;;;;5060945;28;20028;-80
2022/12/04 05:01:18;;;;;;;4.00;2.42;;;;;;;;;;5074259;28;20051;-79
2022/12/04 05:03:44;;;;;;;4.82;2.58;;;;;;;;;;5082010;28;20079;-78
2022/12/04 05:06:10;;;;;;;8.25;2.70;;;;;;;;;;5073643;28;20108;-78
2022/12/04 05:08:36;;;;;;;7.43;3.30;;;;;;;;;;5082806;28;20028;-79
2022/12/04 05:11:03;;;;;;;5.60;2.42;;;;;;;;;;5057370;28;20045;-79
2022/12/04 05:13:30;;;;;;;3.55;2.50;;;;;;;;;;5061036;28;20024;-80
2022/12/04 05:16:14;;;;;;;8.80;3.53;;;;;;;;;;5067235;28;20048;-78
2022/12/04 05:21:27;;;;;;;3.60;2.60;;;;;;;;;;5062570;28;20033;-79
2022/12/04 05:23:53;;;;;;;3.50;2.28;;;;;;;;;;5075276;28;20123;-80
2022/12/04 05:26:19;;;;;;;3.55;2.20;;;;;;;;;;5080080;28;20028;-79
2022/12/04 05:28:45;;;;;;;8.52;2.50;;;;;;;;;;5082086;28;20263;-78
2022/12/04 05:31:11;;;;;;;5.05;2.85;;;;;;;;;;5058877;28;20159;-80
2022/12/04 05:33:38;;;;;;;2.88;2.30;;;;;;;;;;5077161;28;20020;-81
2022/12/04 05:36:05;;;;;;;4.60;2.75;;;;;;;;;;5090793;28;20256;-79
2022/12/04 05:38:32;;;;;;;4.80;2.50;;;;;;;;;;5058377;28;20052;-79
2022/12/04 05:41:02;;;;;;;5.97;2.60;;;;;;;;;;5081953;28;20032;-80
2022/12/04 05:43:28;;;;;;;6.05;2.70;;;;;;;;;;5061058;28;20032;-79
2022/12/04 05:45:54;;;;;;;5.18;3.00;;;;;;;;;;5067107;28;20089;-79
2022/12/04 05:48:20;;;;;;;3.95;2.70;;;;;;;;;;5064440;28;20111;-78
2022/12/04 05:50:46;;;;;;;7.18;2.65;;;;;;;;;;5100555;28;20021;-79
2022/12/04 05:53:12;;;;;;;5.55;2.80;;;;;;;;;;5047471;28;20035;-79
2022/12/04 05:55:38;;;;;;;5.10;2.80;;;;;;;;;;5057527;28;20032;-79
2022/12/04 05:58:04;;;;;;;6.20;3.70;;;;;;;;;;5074593;28;20494;-80
2022/12/04 06:00:31;;;;;;;7.00;3.17;;;;;;;;;;5074574;28;20032;-80
2022/12/04 06:02:57;;;;;;;4.70;2.97;;;;;;;;;;5069337;28;20187;-79
2022/12/04 06:05:23;;;;;;;4.75;2.70;;;;;;;;;;5075939;28;20039;-80
2022/12/04 06:07:49;;;;;;;5.30;3.30;;;;;;;;;;5062227;28;20025;-79
2022/12/04 06:10:15;;;;;;;9.38;3.25;;;;;;;;;;5076674;28;20016;-80
2022/12/04 06:12:41;;;;;;;7.93;3.00;;;;;;;;;;5063507;28;20082;-79
2022/12/04 06:15:08;;;;;;;4.82;2.70;;;;;;;;;;5089441;28;20791;-79
2022/12/04 06:17:34;;;;;;;14.52;3.55;;;;;;;;;;5075978;28;20079;-79
2022/12/04 06:20:00;;;;;;;7.03;2.67;;;;;;;;;;5082685;28;20036;-79
2022/12/04 06:22:26;;;;;;;5.97;2.40;;;;;;;;;;5074678;28;20039;-80
2022/12/04 06:24:52;;;;;;;3.83;2.30;;;;;;;;;;5077676;28;20875;-80
2022/12/04 06:27:18;;;;;;;5.60;2.75;;;;;;;;;;5075213;28;20463;-79
2022/12/04 06:29:44;;;;;;;4.13;3.65;;;;;;;;;;5072269;28;20483;-80
2022/12/04 06:32:10;;;;;;;3.45;2.67;;;;;;;;;;5078285;28;20508;-80
2022/12/04 06:34:36;;;;;;;4.45;2.20;;;;;;;;;;5096605;28;20020;-80
2022/12/04 06:37:02;;;;;;;5.43;2.72;;;;;;;;;;5081055;28;20031;-80
2022/12/04 06:39:28;;;;;;;5.68;2.45;;;;;;;;;;5081968;28;20027;-80
2022/12/04 06:41:54;;;;;;;4.28;2.40;;;;;;;;;;5086486;28;20089;-80
2022/12/04 06:44:21;;;;;;;3.17;2.08;;;;;;;;;;5093714;28;20433;-79
2022/12/04 06:46:48;;;;;;;4.18;2.30;;;;;;;;;;5090690;28;20661;-80
2022/12/04 06:49:14;;;;;;;2.88;2.17;;;;;;;;;;5075388;28;20021;-80
2022/12/04 06:51:41;;;;;;;4.35;2.13;;;;;;;;;;5067928;28;20028;-79
2022/12/04 06:54:07;;;;;;;3.67;2.40;;;;;;;;;;5059321;28;20017;-80
2022/12/04 06:56:33;;;;;;;4.20;2.65;;;;;;;;;;5063742;28;20505;-79
2022/12/04 06:59:00;;;;;;;2.20;1.95;;;;;;;;;;5093698;28;20393;-80
2022/12/04 07:01:28;;;;;;;4.03;2.00;;;;;;;;;;5082349;28;20028;-80
2022/12/04 07:03:55;;;;;;;3.15;2.47;;;;;;;;;;5061751;28;20066;-80
2022/12/04 07:06:29;;;;;;;4.97;2.13;;;;;;;;;;5075750;28;20024;-78
2022/12/04 07:09:03;;;;;;;8.25;2.22;;;;;;;;;;5096596;28;20043;-78
2022/12/04 07:11:33;;;;;;;3.42;2.17;;;;;;;;;;5075326;28;20027;-79
2022/12/04 07:13:59;;;;;;;2.60;1.80;;;;;;;;;;5077168;28;20024;-79
2022/12/04 07:16:25;;;;;;;4.40;2.78;;;;;;;;;;5077297;28;20036;-79
2022/12/04 07:18:52;;;;;;;1.60;1.50;;;;;;;;;;5081390;28;20544;-79
2022/12/04 07:21:19;;;;;;;4.22;1.60;;;;;;;;;;5077021;28;20098;-81
2022/12/04 07:23:48;;;;;;;2.70;1.80;;;;;;;;;;5063411;28;20024;-79
2022/12/04 07:26:14;;;;;;;2.65;1.60;;;;;;;;;;5091503;28;20025;-80
2022/12/04 07:28:40;;;;;;;2.15;1.50;;;;;;;;;;5068677;28;20113;-79
2022/12/04 07:31:08;;;;;;;1.85;1.55;;;;;;;;;;5074082;28;20043;-79
2022/12/04 07:33:34;;;;;;;2.22;1.50;;;;;;;;;;5075855;28;20036;-81
2022/12/04 07:36:01;;;;;;;3.03;2.38;;;;;;;;;;5065651;28;20092;-79
2022/12/04 07:38:28;;;;;;;2.90;1.70;;;;;;;;;;5077041;28;20020;-79
2022/12/04 07:40:58;;;;;;;3.03;1.70;;;;;;;;;;5082953;28;20032;-78
2022/12/04 07:43:25;;;;;;;3.05;1.83;;;;;;;;;;5074902;28;20045;-81
2022/12/04 07:45:51;;;;;;;3.90;1.98;;;;;;;;;;5070739;28;20372;-79
2022/12/04 07:48:17;;;;;;;2.85;2.03;;;;;;;;;;5075104;28;20077;-80
2022/12/04 07:50:43;;;;;;;3.80;2.25;;;;;;;;;;5071877;28;20045;-81
2022/12/04 07:53:10;;;;;;;3.22;2.05;;;;;;;;;;5078607;28;20545;-79
2022/12/04 07:55:36;;;;;;;3.22;1.85;;;;;;;;;;5075893;28;20028;-78
2022/12/04 07:58:02;;;;;;;3.70;2.45;;;;;;;;;;5063001;28;20028;-80
2022/12/04 08:00:28;;;;;;;2.10;1.90;;;;;;;;;;5099162;28;20026;-79
2022/12/04 08:02:54;;;;;;;4.22;1.95;;;;;;;;;;5094924;28;20035;-79
2022/12/04 08:05:20;;;;;;;5.72;2.45;;;;;;;;;;5053091;28;20021;-80
2022/12/04 08:07:46;;;;;;;2.90;2.10;;;;;;;;;;5077078;28;20025;-78
2022/12/04 08:10:13;;;;;;;3.30;2.08;;;;;;;;;;5104043;28;20025;-81
2022/12/04 08:12:39;;;;;;;4.78;2.20;;;;;;;;;;5087118;28;20072;-80
2022/12/04 08:15:05;;;;;;;5.15;2.55;;;;;;;;;;5079613;28;21830;-79
2022/12/04 08:17:31;;;;;;;2.35;1.75;;;;;;;;;;5087690;28;20044;-80
2022/12/04 08:19:57;;;;;;;2.58;2.10;;;;;;;;;;5082528;28;20028;-79
2022/12/04 08:22:24;;;;;;;4.38;1.80;;;;;;;;;;5076322;28;20025;-78
2022/12/04 08:24:50;;;;;;;3.42;1.92;;;;;;;;;;5089947;28;20029;-77
2022/12/04 08:27:16;;;;;;;3.03;2.00;;;;;;;;;;5106543;28;20023;-78
2022/12/04 08:29:42;;;;;;;3.13;1.92;;;;;;;;;;5090287;28;20048;-78
2022/12/04 08:32:08;;;;;;;4.75;2.20;;;;;;;;;;5081992;28;20112;-80
2022/12/04 08:34:34;;;;;;;2.33;1.95;;;;;;;;;;5069418;28;20075;-78
2022/12/04 08:37:01;;;;;;;5.35;2.17;;;;;;;;;;5083466;28;20047;-78
2022/12/04 08:39:27;;;;;;;2.75;1.90;;;;;;;;;;5082685;28;20021;-79
2022/12/04 08:41:53;;;;;;;3.00;2.20;;;;;;;;;;5073027;28;20021;-78
2022/12/04 08:44:19;;;;;;;6.70;2.42;;;;;;;;;;5093008;28;20116;-78
2022/12/04 08:46:45;;;;;;;2.28;1.90;;;;;;;;;;5073966;28;20493;-78
2022/12/04 08:49:11;;;;;;;2.85;2.03;;;;;;;;;;5075958;28;20028;-78
2022/12/04 08:51:37;;;;;;;4.38;2.20;;;;;;;;;;5092134;28;20087;-80
2022/12/04 08:54:05;;;;;;;4.88;2.28;;;;;;;;;;5093578;28;20020;-78
2022/12/04 08:56:31;;;;;;;3.28;2.58;;;;;;;;;;5100652;28;20028;-77
2022/12/04 08:58:58;;;;;;;3.00;2.00;;;;;;;;;;5094577;28;20080;-79
2022/12/04 09:01:24;;;;;;;4.20;2.17;;;;;;;;;;5108358;28;20386;-79
2022/12/04 09:03:50;;;;;;;5.93;2.40;;;;;;;;;;5092460;28;20127;-80
2022/12/04 09:06:17;;;;;;;4.65;2.42;;;;;;;;;;5086772;28;20005;-78
2022/12/04 09:08:43;;;;;;;4.80;2.25;;;;;;;;;;5070507;28;20116;-79
2022/12/04 09:11:17;;;;;;;8.80;2.65;;;;;;;;;;5101998;28;20025;-78
2022/12/04 09:13:43;;;;;;;5.30;2.40;;;;;;;;;;5082472;28;20032;-79
2022/12/04 09:16:11;;;;;;;4.28;2.53;;;;;;;;;;5083857;28;20029;-80
2022/12/04 09:18:37;;;;;;;3.58;2.38;;;;;;;;;;5092203;28;20056;-79
2022/12/04 09:21:05;;;;;;;6.00;2.67;;;;;;;;;;5096749;28;20086;-80
2022/12/04 09:23:31;;;;;;;6.40;2.50;;;;;;;;;;5085253;28;20127;-81
2022/12/04 09:25:57;;;;;;;4.55;2.80;;;;;;;;;;5085294;28;20072;-80
2022/12/04 09:28:23;;;;;;;2.75;2.05;;;;;;;;;;5086192;28;20047;-82
2022/12/04 09:30:58;;;;;;;6.93;2.65;;;;;;;;;;5089039;28;20076;-79
2022/12/04 09:33:25;;;;;;;9.55;3.67;;;;;;;;;;5062069;28;20033;-77
2022/12/04 09:35:51;;;;;;;4.57;2.60;;;;;;;;;;5076727;28;20035;-78
2022/12/04 09:38:17;;;;;;;5.75;2.30;;;;;;;;;;5095977;28;20386;-78
2022/12/04 09:40:52;;;;;;;3.20;1.90;;;;;;;;;;5080040;28;20521;-79
2022/12/04 09:43:21;;;;;;;2.72;2.13;;;;;;;;;;5053161;28;20017;-77
2022/12/04 09:45:51;;;;;;;2.30;1.80;;;;;;;;;;5063106;28;20287;-77
2022/12/04 09:48:18;;;;;;;6.03;2.65;;;;;;;;;;5058198;28;20112;-77
2022/12/04 09:50:44;;;;;;;2.50;1.98;;;;;;;;;;5048039;28;20032;-77
2022/12/04 09:53:10;;;;;;;4.60;2.78;;;;;;;;;;5068997;28;20092;-76
2022/12/04 09:55:36;;;;;;;7.72;2.17;;;;;;;;;;5065266;28;20036;-78
2022/12/04 09:58:04;;;;;;;5.00;2.30;;;;;;;;;;5068417;28;20357;-77
2022/12/04 10:00:41;;;;;;;4.75;2.40;;;;;;;;;;5070150;28;20547;-77
2022/12/04 10:03:12;;;;;;;5.85;2.58;;;;;;;;;;5071172;28;20033;-79
2022/12/04 10:05:43;;;;;;;4.90;2.40;;;;;;;;;;5073217;28;20037;-76
2022/12/04 10:08:20;;;;;;;2.97;2.22;;;;;;;;;;5070455;28;20021;-78
2022/12/04 10:10:53;;;;;;;5.35;2.67;;;;;;;;;;5072339;28;20092;-77
2022/12/04 10:13:29;;;;;;;5.00;2.22;;;;;;;;;;5071405;28;20013;-77
2022/12/04 10:16:06;;;;;;;4.22;2.10;;;;;;;;;;5072157;28;20335;-77
2022/12/04 10:18:53;;;;;;;3.17;2.38;;;;;;;;;;5080335;28;20098;-77
2022/12/04 10:21:22;;;;;;;2.22;2.03;;;;;;;;;;5087061;28;20036;-76
2022/12/04 10:24:07;;;;;;;4.93;2.47;;;;;;;;;;5071223;28;20040;-76
2022/12/04 10:26:37;;;;;;;4.63;2.80;;;;;;;;;;5076355;28;20082;-77
2022/12/04 10:29:05;;;;;;;4.00;3.47;;;;;;;;;;5066678;28;20263;-78
2022/12/04 10:31:33;;;;;;;6.57;3.42;;;;;;;;;;5073424;28;20028;-78
2022/12/04 10:34:15;;;;;;;5.15;3.05;;;;;;;;;;5076641;28;20046;-78
2022/12/04 10:36:43;;;;;;;4.47;3.10;;;;;;;;;;5071941;28;20506;-79
2022/12/04 10:39:34;;;;;;;4.38;2.58;;;;;;;;;;5043131;28;20552;-80
2022/12/04 10:42:00;;;;;;;6.53;2.88;;;;;;;;;;5041350;28;20058;-80
2022/12/04 10:44:26;;;;;;;3.53;3.20;;;;;;;;;;5066694;28;20040;-80
2022/12/04 10:46:58;;;;;;;7.35;3.85;;;;;;;;;;5083183;28;20061;-79
2022/12/04 10:49:34;;;;;;;3.95;3.55;;;;;;;;;;5078494;28;20078;-79
2022/12/04 10:52:04;;;;;;;2.47;2.17;;;;;;;;;;5058112;28;20496;-82
2022/12/04 10:54:42;;;;;;;3.90;2.30;;;;;;;;;;5065859;28;20035;-79
2022/12/04 10:57:10;;;;;;;8.52;4.55;;;;;;;;;;5082673;28;20024;-79
2022/12/04 10:59:39;;;;;;;2.78;2.10;;;;;;;;;;5080248;28;20078;-81
2022/12/04 11:02:20;;;;;;;5.05;2.20;;;;;;;;;;5059871;28;20056;-80
2022/12/04 11:05:00;;;;;;;3.95;2.60;;;;;;;;;;5070292;28;20064;-79
2022/12/04 11:07:31;;;;;;;2.50;2.30;;;;;;;;;;5068927;28;20032;-78
2022/12/04 11:10:00;;;;;;;2.97;2.25;;;;;;;;;;5074268;28;20025;-77
2022/12/04 11:12:26;;;;;;;4.50;2.60;;;;;;;;;;5054136;28;20063;-78
2022/12/04 11:15:01;;;;;;;6.35;3.55;;;;;;;;;;5067556;28;20028;-78
2022/12/04 11:17:27;;;;;;;4.63;3.00;;;;;;;;;;5068315;28;20056;-78
2022/12/04 11:20:16;;;;;;;2.70;2.08;;;;;;;;;;5071686;28;20436;-79
2022/12/04 11:22:52;;;;;;;24.00;7.18;;;;;;;;;;5072864;28;20074;-79
2022/12/04 11:25:19;;;;;;;6.30;3.40;;;;;;;;;;5073894;28;20033;-80
2022/12/04 11:27:51;;;;;;;9.38;4.20;;;;;;;;;;5054852;28;20092;-79
2022/12/04 11:30:31;;;;;;;5.63;2.90;;;;;;;;;;5076756;28;20082;-80
2022/12/04 11:32:58;;;;;;;6.60;3.05;;;;;;;;;;5071909;28;20032;-80
2022/12/04 11:35:25;;;;;;;5.25;3.33;;;;;;;;;;5080177;28;20048;-78
2022/12/04 11:37:53;;;;;;;8.23;3.22;;;;;;;;;;5063717;28;20039;-77
2022/12/04 11:40:20;;;;;;;5.30;2.75;;;;;;;;;;5064188;28;20119;-78
2022/12/04 11:42:57;;;;;;;8.70;3.47;;;;;;;;;;5065951;28;20084;-77
2022/12/04 11:45:23;;;;;;;4.57;3.13;;;;;;;;;;5067068;28;20111;-79
2022/12/04 11:47:56;;;;;;;4.35;3.33;;;;;;;;;;5059396;28;20049;-78
2022/12/04 11:50:35;;;;;;;5.63;3.58;;;;;;;;;;5047613;28;20056;-77
2022/12/04 11:53:04;;;;;;;4.15;2.90;;;;;;;;;;5065475;28;20024;-78
2022/12/04 11:55:48;;;;;;;6.95;3.08;;;;;;;;;;5065440;28;20036;-78
2022/12/04 11:58:29;;;;;;;5.72;2.97;;;;;;;;;;5064601;28;20608;-78
2022/12/04 12:01:15;;;;;;;5.38;2.58;;;;;;;;;;5049755;28;20028;-78
2022/12/04 12:04:02;;;;;;;5.10;2.88;;;;;;;;;;5052295;28;20043;-80
2022/12/04 12:06:31;;;;;;;5.93;3.33;;;;;;;;;;5006761;28;20041;-78
2022/12/04 12:09:12;;;;;;;7.68;2.53;;;;;;;;;;5069955;28;20028;-78
2022/12/04 12:11:38;;;;;;;3.72;2.78;;;;;;;;;;5067605;28;20032;-78
2022/12/04 12:14:22;;;;;;;3.13;2.45;;;;;;;;;;5044947;28;20040;-78
2022/12/04 12:16:54;;;;;;;5.38;2.67;;;;;;;;;;5064729;28;20070;-78
2022/12/04 12:19:36;;;;;;;7.20;3.00;;;;;;;;;;5062052;28;20024;-78
2022/12/04 12:22:24;;;;;;;6.22;2.60;;;;;;;;;;5061196;28;20334;-78
2022/12/04 12:24:56;;;;;;;4.68;2.80;;;;;;;;;;5064193;28;20021;-78
2022/12/04 12:27:29;;;;;;;7.80;3.00;;;;;;;;;;5061636;28;20366;-78
2022/12/04 12:30:01;;;;;;;8.00;3.38;;;;;;;;;;5064195;28;20024;-78
2022/12/04 12:32:33;;;;;;;8.00;3.00;;;;;;;;;;5060807;28;20039;-78
2022/12/04 12:35:00;;;;;;;5.75;3.38;;;;;;;;;;5072279;28;20093;-79
2022/12/04 12:37:45;;;;;;;7.05;3.03;;;;;;;;;;5069883;28;20501;-78
2022/12/04 12:40:15;;;;;;;5.15;3.47;;;;;;;;;;5067808;28;20399;-78
2022/12/04 12:42:50;;;;;;;5.07;2.95;;;;;;;;;;5068383;28;20444;-79
2022/12/04 12:45:22;;;;;;;8.95;3.03;;;;;;;;;;5055957;28;20648;-79
2022/12/04 12:47:51;;;;;;;5.55;2.40;;;;;;;;;;5077960;28;20017;-80
2022/12/04 12:50:32;;;;;;;7.00;3.80;;;;;;;;;;5074198;28;20063;-78
2022/12/04 12:53:01;;;;;;;4.78;2.33;;;;;;;;;;5066816;28;20049;-75
2022/12/04 12:55:33;;;;;;;2.47;2.15;;;;;;;;;;5071900;28;20489;-77
2022/12/04 12:58:12;;;;;;;3.35;2.30;;;;;;;;;;5067485;28;20025;-77
2022/12/04 13:00:46;;;;;;;4.82;2.28;;;;;;;;;;5070004;28;20103;-79
2022/12/04 13:03:22;;;;;;;7.05;3.15;;;;;;;;;;5074234;28;20021;-79
2022/12/04 13:05:51;;;;;;;9.43;3.72;;;;;;;;;;5073787;28;20056;-79
2022/12/04 13:08:20;;;;;;;7.47;4.68;;;;;;;;;;5075872;28;20116;-78
2022/12/04 13:11:06;;;;;;;8.20;3.80;;;;;;;;;;5073234;28;20380;-80
2022/12/04 13:13:33;;;;;;;4.47;3.63;;;;;;;;;;5040166;28;20064;-79
2022/12/04 13:16:02;;;;;;;4.93;3.25;;;;;;;;;;5074290;28;20101;-79
2022/12/04 13:18:32;;;;;;;5.43;2.67;;;;;;;;;;5074587;28;20055;-80
2022/12/04 13:21:02;;;;;;;5.97;2.28;;;;;;;;;;5077232;28;20115;-79
2022/12/04 13:23:52;;;;;;;4.70;3.92;;;;;;;;;;5071871;28;20470;-78
2022/12/04 13:26:32;;;;;;;5.18;2.75;;;;;;;;;;5041567;28;20048;-79
2022/12/04 13:29:11;;;;;;;5.18;3.17;;;;;;;;;;5070757;28;20025;-79
2022/12/04 13:31:48;;;;;;;7.13;4.18;;;;;;;;;;5067843;28;20024;-80
2022/12/04 13:34:29;;;;;;;4.68;2.78;;;;;;;;;;5074698;28;20378;-80
2022/12/04 13:36:55;;;;;;;4.85;3.40;;;;;;;;;;5070635;28;20028;-79
2022/12/04 13:39:40;;;;;;;6.22;4.00;;;;;;;;;;5078818;28;20043;-79
2022/12/04 13:42:06;;;;;;;6.35;4.55;;;;;;;;;;5079015;28;20060;-80
2022/12/04 13:44:33;;;;;;;4.40;3.15;;;;;;;;;;5074349;28;20100;-80
2022/12/04 13:47:05;;;;;;;6.22;2.90;;;;;;;;;;5060220;28;20032;-80
2022/12/04 13:49:32;;;;;;;3.30;2.35;;;;;;;;;;5069007;28;20107;-79
2022/12/04 13:52:01;;;;;;;5.90;2.45;;;;;;;;;;5071515;28;20096;-78
2022/12/04 13:54:36;;;;;;;5.57;2.92;;;;;;;;;;5067019;28;20504;-80
2022/12/04 13:57:14;;;;;;;3.67;2.47;;;;;;;;;;5068747;28;20032;-79
2022/12/04 13:59:41;;;;;;;4.97;3.00;;;;;;;;;;5057990;28;20024;-80
2022/12/04 14:02:17;;;;;;;5.20;3.28;;;;;;;;;;5074288;28;20032;-79
2022/12/04 14:04:54;;;;;;;5.75;3.17;;;;;;;;;;5076401;28;20020;-80
2022/12/04 14:07:23;;;;;;;4.53;2.97;;;;;;;;;;5075952;28;20028;-79
2022/12/04 14:09:52;;;;;;;10.73;6.35;;;;;;;;;;5079197;28;20028;-79
2022/12/04 14:12:18;;;;;;;5.03;3.30;;;;;;;;;;5079809;28;20031;-78
2022/12/04 14:14:56;;;;;;;7.63;3.83;;;;;;;;;;5078498;28;20024;-80
2022/12/04 14:17:33;;;;;;;5.82;4.05;;;;;;;;;;5067090;28;20037;-79
2022/12/04 14:20:04;;;;;;;5.65;3.38;;;;;;;;;;5051415;28;20020;-79
2022/12/04 14:22:33;;;;;;;5.95;3.53;;;;;;;;;;5050741;28;20029;-79
2022/12/04 14:25:25;;;;;;;3.53;2.78;;;;;;;;;;5048451;28;20029;-79
2022/12/04 14:27:52;;;;;;;6.40;4.40;;;;;;;;;;5045577;28;20494;-80
2022/12/04 14:30:24;;;;;;;5.00;3.63;;;;;;;;;;5048788;28;20093;-79
2022/12/04 14:32:54;;;;;;;11.73;7.38;;;;;;;;;;5091717;28;20028;-79
2022/12/04 14:35:22;;;;;;;5.65;3.42;;;;;;;;;;5061210;28;20029;-78
2022/12/04 14:37:54;;;;;;;7.05;4.45;;;;;;;;;;5091987;28;20039;-80
2022/12/04 14:40:23;;;;;;;10.75;6.35;;;;;;;;;;5094517;28;20045;-79
2022/12/04 14:42:50;;;;;;;11.40;6.55;;;;;;;;;;5058553;28;20029;-78
2022/12/04 14:45:29;;;;;;;10.57;6.22;;;;;;;;;;5090480;28;20024;-79
2022/12/04 14:48:03;;;;;;;6.97;4.00;;;;;;;;;;5060921;28;20025;-78
2022/12/04 14:50:29;;;;;;;10.02;5.65;;;;;;;;;;5060101;28;20060;-78
2022/12/04 14:53:06;;;;;;;10.68;6.85;;;;;;;;;;5062365;28;20063;-79
2022/12/04 14:55:36;;;;;;;17.20;8.05;;;;;;;;;;5065794;28;20024;-82
2022/12/04 14:58:28;;;;;;;16.70;8.98;;;;;;;;;;5093103;28;20035;-79
2022/12/04 15:00:55;;;;;;;25.33;14.93;;;;;;;;;;5060434;28;20631;-78
2022/12/04 15:03:22;;;;;;;21.00;11.82;;;;;;;;;;5055026;28;20672;-79
2022/12/04 15:05:49;;;;;;;18.20;9.77;;;;;;;;;;5057304;28;20095;-79
2022/12/04 15:08:16;;;;;;;16.40;9.30;;;;;;;;;;5088628;28;20047;-79
2022/12/04 15:13:34;;;;;;;14.50;8.68;;;;;;;;;;5055398;28;20053;-77